Time;durP1;ratioP1;P1;durP2;ratioP2;P2;SDS_P1;SDS_P2;PMS_P1;PMS_P2;Temp;Humidity;BMP_temperature;BMP_pressure;BME280_temperature;BME280_humidity;BME280_pressure;Samples;Min_cycle;Max_cycle;Signal;HPM_P1;HPM_P2
2022/05/18 00:10:50;;;;;;;6.57;3.10;;;;;;;6.77;58.04;101483.53;739231;1153;114384;-74
2022/05/18 00:25:52;;;;;;;6.80;2.65;;;;;;;6.70;58.64;101503.88;739181;1153;114584;-76
2022/05/18 00:40:54;;;;;;;5.75;2.63;;;;;;;5.93;59.37;101512.97;738869;1152;114497;-76
2022/05/18 00:56:01;;;;;;;5.60;2.20;;;;;;;5.77;59.19;101524.12;739095;1152;114195;-75
2022/05/18 01:11:03;;;;;;;4.10;2.20;;;;;;;5.35;60.51;101543.45;738886;1152;114823;-75
2022/05/18 01:26:21;;;;;;;9.93;4.85;;;;;;;5.39;60.95;101552.80;738975;1152;113633;-75
2022/05/18 01:41:28;;;;;;;9.45;3.93;;;;;;;5.30;60.59;101556.66;738886;1152;114812;-74
2022/05/18 01:56:31;;;;;;;18.70;6.40;;;;;;;5.12;62.40;101565.29;738833;1152;113963;-74
2022/05/18 02:11:35;;;;;;;10.80;4.30;;;;;;;4.78;61.15;101569.40;738915;1152;114753;-74
2022/05/18 02:26:38;;;;;;;11.18;5.13;;;;;;;4.64;62.34;101576.01;738838;1152;113654;-74
2022/05/18 02:41:41;;;;;;;7.35;3.35;;;;;;;4.82;62.28;101600.39;738754;1152;114248;-74
2022/05/18 02:56:43;;;;;;;9.65;4.15;;;;;;;4.82;62.57;101613.39;739326;1152;115092;-75
2022/05/18 03:11:46;;;;;;;66.45;28.15;;;;;;;4.74;62.71;101617.21;739089;1152;114499;-75
2022/05/18 03:26:49;;;;;;;22.48;9.13;;;;;;;4.88;63.39;101633.08;739311;1152;114054;-76
2022/05/18 03:41:52;;;;;;;102.17;25.67;;;;;;;5.14;64.00;101636.32;739019;1152;115085;-75
2022/05/18 03:56:55;;;;;;;17.08;7.03;;;;;;;5.67;64.13;101658.26;739226;1152;115043;-76
2022/05/18 04:11:57;;;;;;;13.55;5.60;;;;;;;6.20;64.81;101687.13;739375;1152;114114;-75
2022/05/18 04:26:59;;;;;;;8.40;3.95;;;;;;;6.71;64.76;101687.30;739553;1152;114684;-76
2022/05/18 04:42:02;;;;;;;6.50;2.65;;;;;;;7.45;65.29;101705.27;748551;1152;113890;-75
2022/05/18 04:57:04;;;;;;;5.13;2.58;;;;;;;8.20;65.25;101704.77;739607;1152;114463;-75
2022/05/18 05:12:08;;;;;;;3.15;1.53;;;;;;;8.80;64.78;101705.78;739500;1152;114778;-76
2022/05/18 05:27:10;;;;;;;2.63;1.10;;;;;;;9.50;64.79;101720.85;739552;1152;113993;-76
2022/05/18 05:42:13;;;;;;;4.95;1.25;;;;;;;10.01;63.61;101720.36;739589;1152;114655;-83
2022/05/18 05:57:15;;;;;;;2.50;1.40;;;;;;;10.48;62.24;101732.25;739389;1152;113720;-84
2022/05/18 06:12:17;;;;;;;2.77;1.07;;;;;;;11.15;62.13;101749.75;740063;1152;114159;-83
2022/05/18 06:27:20;;;;;;;2.10;1.38;;;;;;;11.49;60.02;101757.97;738965;1152;114442;-82
2022/05/18 06:42:22;;;;;;;1.80;1.20;;;;;;;11.57;59.25;101774.98;739335;1152;114594;-73
2022/05/18 06:57:25;;;;;;;4.60;1.20;;;;;;;12.08;58.72;101780.22;739868;1152;113530;-73
2022/05/18 07:12:27;;;;;;;3.25;1.23;;;;;;;13.22;57.64;101791.30;739205;1152;113999;-73
2022/05/18 07:27:30;;;;;;;1.43;1.00;;;;;;;13.64;55.71;101795.11;739507;1152;115222;-81
2022/05/18 07:42:33;;;;;;;2.20;1.10;;;;;;;14.67;54.47;101802.97;739546;1153;115060;-77
2022/05/18 07:57:37;;;;;;;2.28;1.10;;;;;;;16.31;53.48;101803.20;739823;1153;115532;-82
2022/05/18 08:28:02;;;;;;;2.35;1.10;;;;;;;16.85;51.78;101773.70;740286;1153;114280;-80
2022/05/18 08:43:12;;;;;;;3.50;1.20;;;;;;;17.52;50.55;101785.20;739842;1152;115550;-80
2022/05/18 08:58:39;;;;;;;1.80;0.80;;;;;;;17.42;48.90;101781.73;739951;1152;114091;-81
2022/05/18 09:13:42;;;;;;;2.83;0.95;;;;;;;18.89;48.55;101778.30;739727;1152;113881;-84
2022/05/18 09:29:14;;;;;;;1.13;0.80;;;;;;;19.36;47.53;101771.80;739564;1152;115377;-83
2022/05/18 09:44:47;;;;;;;1.30;0.70;;;;;;;20.70;46.30;101768.45;740033;1152;114890;-77
2022/05/18 10:00:01;;;;;;;0.80;0.58;;;;;;;20.41;45.98;101752.92;739763;1152;114770;-75
2022/05/18 10:15:18;;;;;;;0.75;0.58;;;;;;;21.41;44.82;101741.20;740127;1152;115565;-73
2022/05/18 10:30:31;;;;;;;8.43;1.20;;;;;;;21.00;44.39;101733.30;739459;1152;115601;-74
2022/05/18 10:45:35;;;;;;;3.48;1.25;;;;;;;21.07;43.43;101708.41;739532;1152;114634;-74
2022/05/18 11:00:59;;;;;;;1.20;0.70;;;;;;;22.53;42.69;101700.05;739350;1152;114715;-72
2022/05/18 11:16:22;;;;;;;1.78;0.60;;;;;;;22.39;41.19;101699.80;739731;1152;113877;-76
2022/05/18 11:31:44;;;;;;;1.15;0.60;;;;;;;22.95;39.27;101690.63;740777;1153;114873;-75
2022/05/18 11:47:07;;;;;;;0.50;0.40;;;;;;;24.11;38.43;101667.75;739352;1153;114963;-75
2022/05/18 12:02:56;;;;;;;1.25;0.68;;;;;;;24.80;38.38;101655.52;739033;1151;114359;-75
2022/05/18 12:18:11;;;;;;;0.40;0.40;;;;;;;25.29;37.47;101634.95;738992;1152;115598;-74
2022/05/18 12:33:17;;;;;;;1.83;0.57;;;;;;;25.86;38.02;101633.66;739219;1153;114292;-76
2022/05/18 12:48:38;;;;;;;0.87;0.43;;;;;;;25.83;36.97;101617.14;740208;1152;114838;-77
2022/05/18 13:03:51;;;;;;;0.93;0.60;;;;;;;25.47;36.59;101612.91;739515;1152;114675;-75
2022/05/18 13:18:59;;;;;;;2.58;0.75;;;;;;;25.81;37.23;101595.83;739312;1152;114518;-76
2022/05/18 13:34:09;;;;;;;3.60;2.30;;;;;;;25.59;35.12;101579.08;739066;1152;115486;-73
2022/05/18 13:49:20;;;;;;;2.13;1.30;;;;;;;25.69;34.80;101576.79;739698;1152;113983;-73
2022/05/18 14:04:36;;;;;;;0.65;0.50;;;;;;;26.15;34.94;101559.06;739796;1152;115338;-72
2022/05/18 14:20:08;;;;;;;2.33;1.20;;;;;;;26.06;34.22;101547.71;742432;1152;115506;-72
2022/05/18 14:35:13;;;;;;;1.55;0.65;;;;;;;26.15;33.43;101539.42;739047;1152;115429;-72
2022/05/18 14:50:42;;;;;;;2.45;0.70;;;;;;;26.18;33.09;101530.93;739139;1152;115207;-72
2022/05/18 15:05:46;;;;;;;0.77;0.60;;;;;;;25.05;33.48;101525.20;739329;1152;115360;-72
2022/05/18 15:20:54;;;;;;;1.28;0.50;;;;;;;25.12;33.86;101519.03;739794;1152;113959;-73
2022/05/18 15:36:03;;;;;;;5.23;1.00;;;;;;;24.34;33.77;101504.82;740275;1152;115553;-73
2022/05/18 15:51:06;;;;;;;0.95;0.60;;;;;;;24.65;34.26;101492.02;739775;1152;115522;-73
2022/05/18 16:06:09;;;;;;;34.80;27.95;;;;;;;23.97;33.91;101481.92;739679;1152;116212;-71
2022/05/18 16:21:17;;;;;;;1.77;1.30;;;;;;;23.88;33.48;101482.00;740031;1152;114994;-72
2022/05/18 16:36:27;;;;;;;4.28;2.43;;;;;;;23.09;32.78;101474.88;740534;1152;115346;-72
2022/05/18 16:51:38;;;;;;;37.30;17.13;;;;;;;22.85;33.63;101476.88;740262;1152;115155;-70
2022/05/18 17:06:41;;;;;;;9.23;5.60;;;;;;;22.47;34.76;101474.34;740809;1152;115878;-70
2022/05/18 17:21:44;;;;;;;8.05;3.53;;;;;;;22.31;35.06;101483.34;739884;1152;115159;-70
2022/05/18 17:36:46;;;;;;;5.80;2.30;;;;;;;21.72;35.77;101470.73;739308;1152;115228;-68
2022/05/18 17:51:49;;;;;;;4.80;1.60;;;;;;;21.47;36.21;101456.73;739685;1152;115200;-71
2022/05/18 18:06:53;;;;;;;30.55;23.20;;;;;;;20.77;37.66;101456.66;739734;1152;115153;-71
2022/05/18 18:21:55;;;;;;;15.13;6.40;;;;;;;19.22;38.80;101451.38;740315;1152;115690;-71
2022/05/18 18:36:59;;;;;;;53.08;17.00;;;;;;;18.16;39.94;101460.56;739200;1152;115523;-71
2022/05/18 19:07:27;;;;;;;45.03;16.40;;;;;;;16.38;41.97;101473.34;739447;1152;114313;-80
2022/05/18 19:22:39;;;;;;;45.13;15.33;;;;;;;15.57;44.14;101455.20;739963;1152;114489;-79
2022/05/18 19:37:42;;;;;;;10.23;5.95;;;;;;;15.08;45.31;101444.59;740013;1153;115232;-79
2022/05/18 19:52:44;;;;;;;22.95;9.80;;;;;;;14.61;47.09;101455.70;739732;1152;115405;-80
2022/05/18 20:07:47;;;;;;;13.03;5.38;;;;;;;13.85;47.84;101438.34;739408;1152;115859;-80
2022/05/18 20:22:49;;;;;;;24.68;9.18;;;;;;;13.57;49.19;101439.81;739790;1152;115804;-71
2022/05/18 20:37:53;;;;;;;14.23;7.70;;;;;;;13.20;50.12;101433.08;739567;1152;115395;-72
2022/05/18 20:52:56;;;;;;;11.73;5.33;;;;;;;12.57;50.59;101436.28;739581;1152;116120;-73
2022/05/18 21:07:58;;;;;;;14.27;6.57;;;;;;;12.38;50.82;101442.16;739449;1152;115896;-72
2022/05/18 21:23:01;;;;;;;15.03;6.08;;;;;;;11.67;51.41;101444.84;749219;1152;115489;-71
2022/05/18 21:38:04;;;;;;;24.10;8.30;;;;;;;11.53;52.06;101435.34;741254;1152;114670;-72
2022/05/18 21:53:06;;;;;;;16.43;6.90;;;;;;;11.19;53.15;101444.86;739600;1152;115860;-72
2022/05/18 22:08:08;;;;;;;16.53;6.78;;;;;;;10.88;54.44;101442.64;740070;1152;115663;-72
2022/05/18 22:23:11;;;;;;;16.15;6.35;;;;;;;10.68;54.88;101441.44;740062;1152;116167;-72
2022/05/18 22:38:14;;;;;;;9.43;4.50;;;;;;;10.11;54.97;101442.70;740468;1152;115550;-74
2022/05/18 22:53:18;;;;;;;12.10;4.87;;;;;;;9.88;56.32;101431.13;739752;1152;115527;-72
2022/05/18 23:08:23;;;;;;;9.70;4.70;;;;;;;9.65;56.88;101433.50;739727;1152;115319;-72
2022/05/18 23:23:32;;;;;;;9.83;4.13;;;;;;;9.42;56.95;101420.14;740844;1152;115360;-73
2022/05/18 23:38:54;;;;;;;11.97;5.33;;;;;;;9.31;56.29;101406.89;739112;1152;114358;-71
2022/05/18 23:54:14;;;;;;;10.05;3.70;;;;;;;8.98;57.10;101402.88;738839;1152;115529;-71
